createdAt,value
2019-05-17T00:00:28.894Z,52.10
2019-05-17T00:02:58.347Z,52.60
2019-05-17T00:05:27.835Z,52.40
2019-05-17T00:07:57.920Z,52.60
2019-05-17T00:10:27.236Z,52.30
2019-05-17T00:12:56.504Z,52.50
2019-05-17T00:15:27.327Z,52.50
2019-05-17T00:17:57.228Z,52.40
2019-05-17T00:20:27.443Z,52.40
2019-05-17T00:22:59.545Z,52.40
2019-05-17T00:25:29.580Z,52.80
2019-05-17T00:27:58.962Z,53.00
2019-05-17T00:30:31.247Z,53.80
2019-05-17T00:33:01.652Z,53.20
2019-05-17T03:33:26.848Z,54.30
2019-05-17T03:35:57.376Z,42.40
2019-05-17T03:38:27.115Z,40.70
2019-05-17T03:41:12.436Z,39.40
2019-05-17T03:43:27.212Z,40.10
2019-05-17T03:45:56.373Z,40.60
2019-05-17T03:48:25.891Z,40.80
2019-05-17T03:50:55.320Z,41.20
2019-05-17T03:53:24.956Z,41.40
2019-05-17T03:55:54.354Z,41.10
2019-05-17T03:58:24.592Z,42.00
2019-05-17T04:00:54.417Z,43.20
2019-05-17T04:03:23.679Z,44.00
2019-05-17T04:05:53.200Z,44.50
2019-05-17T04:08:33.206Z,44.10
2019-05-17T04:10:57.710Z,44.20
2019-05-17T04:13:33.653Z,44.10
2019-05-17T04:16:05.671Z,43.70
2019-05-17T04:18:33.756Z,42.70
2019-05-17T04:21:04.155Z,43.10
2019-05-17T04:23:35.545Z,43.70
2019-05-17T04:26:07.002Z,44.10
2019-05-17T04:28:39.717Z,45.00
2019-05-17T04:31:13.703Z,45.30
2019-05-17T04:33:43.258Z,45.50
2019-05-17T04:36:13.316Z,44.90
2019-05-17T04:38:43.664Z,45.20
2019-05-17T04:41:15.621Z,45.80
2019-05-17T04:43:45.121Z,46.80
2019-05-17T04:46:14.475Z,45.50
2019-05-17T04:48:44.770Z,46.60
2019-05-17T04:51:16.327Z,46.20
2019-05-17T04:53:48.159Z,45.80
2019-05-17T04:56:17.618Z,45.30
2019-05-17T04:58:50.112Z,45.40
2019-05-17T05:01:23.351Z,45.00
2019-05-17T05:03:54.712Z,44.20
2019-05-17T05:06:24.399Z,44.00
2019-05-17T05:08:53.698Z,42.80
2019-05-17T05:11:25.432Z,42.60
2019-05-17T05:13:54.833Z,40.90
2019-05-17T05:18:52.940Z,41.50
2019-05-17T05:21:24.672Z,36.70
2019-05-17T05:23:56.177Z,35.70
2019-05-17T05:26:25.430Z,32.30
2019-05-17T05:28:57.875Z,30.30
2019-05-17T05:31:26.897Z,27.70
2019-05-17T05:33:55.982Z,26.90
2019-05-17T05:36:25.076Z,25.80
2019-05-17T05:38:54.169Z,24.80
2019-05-17T05:41:24.287Z,23.10
2019-05-17T05:43:53.385Z,23.20
2019-05-17T05:46:24.799Z,23.50
2019-05-17T05:48:53.825Z,22.80
2019-05-17T05:51:22.935Z,22.40
2019-05-17T05:53:52.254Z,22.40
2019-05-17T05:56:22.006Z,21.70
2019-05-17T05:58:52.244Z,22.10
2019-05-17T06:01:22.054Z,22.60
2019-05-17T06:03:53.820Z,22.00
2019-05-17T06:06:22.918Z,21.90
2019-05-17T06:08:52.216Z,21.90
2019-05-17T06:11:21.671Z,21.10
2019-05-17T06:13:54.148Z,20.90
2019-05-17T06:16:24.288Z,21.50
2019-05-17T06:18:54.327Z,20.80
2019-05-17T06:21:23.424Z,21.30
2019-05-17T06:23:53.089Z,21.80
2019-05-17T06:26:23.737Z,20.70
2019-05-17T06:28:53.068Z,20.70
2019-05-17T06:33:55.041Z,19.00
2019-05-17T06:36:24.137Z,19.40
2019-05-17T06:38:53.334Z,19.00
2019-05-17T06:41:22.428Z,19.80
2019-05-17T06:43:55.473Z,20.30
2019-05-17T06:46:23.689Z,19.40
2019-05-17T06:48:56.272Z,18.70
2019-05-17T06:51:25.367Z,18.80
2019-05-17T06:53:56.778Z,19.20
2019-05-17T06:56:25.910Z,19.40
2019-05-17T06:58:54.999Z,18.90
2019-05-17T07:01:24.095Z,19.50
2019-05-17T07:03:54.458Z,19.40
2019-05-17T07:06:26.200Z,19.60
2019-05-17T07:08:55.474Z,19.60
2019-05-17T07:11:25.625Z,20.30
2019-05-17T07:13:54.892Z,20.00
2019-05-17T07:16:23.989Z,19.70
2019-05-17T07:18:52.936Z,19.50
2019-05-17T07:21:24.485Z,18.60
2019-05-17T07:23:53.627Z,19.00
2019-05-17T07:26:22.724Z,19.60
2019-05-17T07:28:51.713Z,19.90
2019-05-17T07:31:23.156Z,21.20
2019-05-17T07:33:59.871Z,20.80
2019-05-17T07:36:34.153Z,21.00
2019-05-17T07:39:05.501Z,21.00
2019-05-17T07:41:35.527Z,20.50
2019-05-17T07:44:04.614Z,19.70
2019-05-17T07:46:33.809Z,19.10
2019-05-17T07:49:05.158Z,19.10
2019-05-17T07:51:34.254Z,19.20
2019-05-17T07:54:05.807Z,20.10
2019-05-17T07:56:40.154Z,21.30
2019-05-17T07:59:09.601Z,22.80
2019-05-17T08:01:41.688Z,23.40
2019-05-17T08:04:10.904Z,23.40
2019-05-17T08:06:40.422Z,23.30
2019-05-17T08:09:13.950Z,24.40
2019-05-17T08:11:42.886Z,25.40
2019-05-17T08:14:25.522Z,25.70
2019-05-17T08:16:50.163Z,25.70
2019-05-17T08:19:20.497Z,25.30
2019-05-17T08:21:50.214Z,24.00
2019-05-17T08:24:19.661Z,23.40
2019-05-17T08:26:50.220Z,23.30
2019-05-17T08:29:20.362Z,22.80
2019-05-17T08:31:49.741Z,22.20
2019-05-17T08:34:19.773Z,22.60
2019-05-17T08:36:49.955Z,22.60
2019-05-17T08:39:21.469Z,22.50
2019-05-17T08:41:49.830Z,22.30
2019-05-17T08:44:19.263Z,22.70
2019-05-17T08:46:50.128Z,21.60
2019-05-17T08:49:22.754Z,20.60
2019-05-17T08:51:51.853Z,21.00
2019-05-17T08:54:21.046Z,20.40
2019-05-17T08:56:50.984Z,19.50
2019-05-17T08:59:23.592Z,20.50
2019-05-17T09:01:52.539Z,21.10
2019-05-17T09:04:22.647Z,21.40
2019-05-17T09:06:51.748Z,21.90
2019-05-17T09:09:21.964Z,22.80
2019-05-17T09:11:53.528Z,23.00
2019-05-17T09:14:23.839Z,23.60
2019-05-17T09:17:10.297Z,23.30
2019-05-17T09:19:39.674Z,23.00
2019-05-17T09:22:10.465Z,23.00
2019-05-17T09:24:45.326Z,22.70
2019-05-17T09:27:19.587Z,23.60
2019-05-17T09:29:49.547Z,23.60
2019-05-17T09:32:20.364Z,23.60
2019-05-17T09:34:49.936Z,25.00
2019-05-17T09:37:22.428Z,24.50
2019-05-17T09:39:49.807Z,24.20
2019-05-17T09:42:20.996Z,24.80
2019-05-17T09:44:49.757Z,24.20
2019-05-17T09:47:30.015Z,24.10
2019-05-17T09:50:00.542Z,24.80
2019-05-17T09:52:33.822Z,24.40
2019-05-17T09:55:02.910Z,24.70
2019-05-17T09:57:32.113Z,24.70
2019-05-17T10:00:01.239Z,25.80
2019-05-17T10:02:32.871Z,25.20
2019-05-17T10:05:01.960Z,24.60
2019-05-17T10:07:31.049Z,25.00
2019-05-17T10:10:02.090Z,25.50
2019-05-17T10:12:31.181Z,25.70
2019-05-17T10:15:00.563Z,26.00
2019-05-17T10:17:29.883Z,25.80
2019-05-17T10:19:59.904Z,26.60
2019-05-17T10:22:30.357Z,26.00
2019-05-17T10:25:00.298Z,26.00
2019-05-17T10:27:30.259Z,26.20
2019-05-17T10:30:02.526Z,26.40
2019-05-17T10:32:32.604Z,27.70
2019-05-17T10:35:08.209Z,26.40
2019-05-17T10:37:40.360Z,26.50
2019-05-17T10:40:10.836Z,25.90
2019-05-17T10:42:40.296Z,26.00
2019-05-17T10:45:14.199Z,26.40
2019-05-17T10:47:46.855Z,26.60
2019-05-17T10:50:16.379Z,27.40
2019-05-17T10:52:45.487Z,27.50
2019-05-17T10:55:16.153Z,28.20
2019-05-17T10:57:51.045Z,27.80
2019-05-17T11:00:21.962Z,27.80
2019-05-17T11:02:51.070Z,28.60
2019-05-17T11:05:20.288Z,27.40
2019-05-17T11:07:50.475Z,27.50
2019-05-17T11:10:20.764Z,28.00
2019-05-17T11:12:49.905Z,27.60
2019-05-17T11:15:26.789Z,27.90
2019-05-17T11:17:58.295Z,27.40
2019-05-17T11:20:31.735Z,26.90
2019-05-17T11:23:04.421Z,27.20
2019-05-17T11:25:33.610Z,26.50
2019-05-17T11:28:03.727Z,26.30
2019-05-17T11:30:32.936Z,26.50
2019-05-17T11:33:02.053Z,26.90
2019-05-17T11:35:31.110Z,27.80
2019-05-17T11:38:00.205Z,26.60
2019-05-17T11:40:29.437Z,27.50
2019-05-17T11:42:58.497Z,27.30
2019-05-17T11:45:33.138Z,27.20
2019-05-17T11:48:02.319Z,28.10
2019-05-17T11:50:31.414Z,27.80
2019-05-17T11:53:00.513Z,27.70
2019-05-17T11:55:31.652Z,28.50
2019-05-17T11:58:00.745Z,29.60
2019-05-17T12:00:31.791Z,29.30
2019-05-17T12:03:07.845Z,29.00
2019-05-17T12:05:36.939Z,28.20
2019-05-17T12:08:11.169Z,29.30
2019-05-17T12:10:40.389Z,28.80
2019-05-17T12:13:13.241Z,28.60
2019-05-17T12:15:45.732Z,29.40
2019-05-17T12:18:15.010Z,29.30
2019-05-17T12:20:44.103Z,28.90
2019-05-17T12:23:13.199Z,29.40
2019-05-17T12:25:44.667Z,29.60
2019-05-17T12:28:13.792Z,29.80
2019-05-17T12:30:43.066Z,30.10
2019-05-17T12:33:12.144Z,30.00
2019-05-17T12:35:41.232Z,30.00
2019-05-17T12:38:10.382Z,29.70
2019-05-17T12:40:39.529Z,30.50
2019-05-17T12:43:08.618Z,29.90
2019-05-17T12:45:37.713Z,29.70
2019-05-17T12:48:06.813Z,30.40
2019-05-17T12:50:36.005Z,30.40
2019-05-17T12:53:04.947Z,30.90
2019-05-17T12:55:33.991Z,30.50
2019-05-17T12:58:06.975Z,30.40
2019-05-17T13:00:36.071Z,30.70
2019-05-17T13:03:05.167Z,30.60
2019-05-17T13:05:34.265Z,31.10
2019-05-17T13:08:03.366Z,31.10
2019-05-17T13:10:33.374Z,31.20
2019-05-17T13:13:02.577Z,31.40
2019-05-17T13:15:31.829Z,31.50
2019-05-17T13:18:00.963Z,32.50
2019-05-17T13:20:31.082Z,31.70
2019-05-17T13:23:00.149Z,31.10
2019-05-17T13:25:29.171Z,32.00
2019-05-17T13:27:58.368Z,31.50
2019-05-17T13:30:27.464Z,31.30
2019-05-17T13:32:56.558Z,30.90
2019-05-17T13:35:25.649Z,32.40
2019-05-17T13:37:58.961Z,31.30
2019-05-17T13:40:38.727Z,30.70
2019-05-17T13:43:01.539Z,31.00
2019-05-17T13:45:30.743Z,31.30
2019-05-17T13:47:59.832Z,31.10
2019-05-17T13:50:28.922Z,31.40
2019-05-17T13:52:58.023Z,30.90
2019-05-17T13:55:29.689Z,30.80
2019-05-17T13:58:02.968Z,31.00
2019-05-17T14:00:32.067Z,30.70
2019-05-17T14:03:04.950Z,30.50
2019-05-17T14:05:34.045Z,30.40
2019-05-17T14:08:03.144Z,30.60
2019-05-17T14:10:32.360Z,30.10
2019-05-17T14:13:01.527Z,30.70
2019-05-17T14:15:30.628Z,30.70
2019-05-17T14:17:59.749Z,30.60
2019-05-17T14:20:28.813Z,30.30
2019-05-17T14:22:57.906Z,30.60
2019-05-17T14:25:27.001Z,30.30
2019-05-17T14:27:56.111Z,30.80
2019-05-17T14:30:25.194Z,30.50
2019-05-17T14:32:54.211Z,30.80
2019-05-17T14:35:23.380Z,29.60
2019-05-17T14:37:52.475Z,29.80
2019-05-17T14:40:22.267Z,30.10
2019-05-17T14:42:51.587Z,30.10
2019-05-17T14:45:25.185Z,30.30
2019-05-17T14:47:53.672Z,30.00
2019-05-17T14:50:25.127Z,30.20
2019-05-17T14:52:56.784Z,29.70
2019-05-17T14:55:25.872Z,29.90
2019-05-17T14:57:54.969Z,29.50
2019-05-17T15:00:26.592Z,29.50
2019-05-17T15:02:56.684Z,29.00
2019-05-17T15:05:25.833Z,29.30
2019-05-17T15:07:54.938Z,28.90
2019-05-17T15:10:24.021Z,28.90
2019-05-17T15:12:53.220Z,29.50
2019-05-17T15:15:26.058Z,29.50
2019-05-17T15:17:53.991Z,29.70
2019-05-17T15:20:23.162Z,29.80
2019-05-17T15:22:52.257Z,29.60
2019-05-17T15:25:29.441Z,30.30
2019-05-17T15:27:58.539Z,29.90
2019-05-17T15:30:27.633Z,30.10
2019-05-17T15:32:59.091Z,29.70
2019-05-17T15:35:28.182Z,29.90
2019-05-17T15:37:57.276Z,29.90
2019-05-17T15:40:26.364Z,29.50
2019-05-17T15:42:55.462Z,29.50
2019-05-17T15:45:24.556Z,29.10
2019-05-17T15:47:53.756Z,29.70
2019-05-17T15:50:22.962Z,29.80
2019-05-17T15:52:52.052Z,28.80
2019-05-17T15:55:21.137Z,28.90
2019-05-17T15:57:52.796Z,28.30
2019-05-17T16:00:22.094Z,28.70
2019-05-17T16:02:54.464Z,28.80
2019-05-17T16:05:26.120Z,28.70
2019-05-17T16:07:55.094Z,29.20
2019-05-17T16:10:24.211Z,29.30
2019-05-17T16:13:02.557Z,29.20
2019-05-17T16:15:24.960Z,29.20
2019-05-17T16:17:54.056Z,29.70
2019-05-17T16:20:25.617Z,29.60
2019-05-17T16:22:54.801Z,30.30
2019-05-17T16:25:23.894Z,30.50
2019-05-17T16:27:53.001Z,30.10
2019-05-17T16:30:22.098Z,30.30
2019-05-17T16:32:52.203Z,30.30
2019-05-17T16:35:21.445Z,31.40
2019-05-17T16:37:50.596Z,30.40
2019-05-17T16:40:19.724Z,30.50
2019-05-17T16:42:48.898Z,30.60
2019-05-17T16:45:22.033Z,30.20
2019-05-17T16:47:49.945Z,30.40
2019-05-17T16:50:19.245Z,30.30
2019-05-17T16:52:49.166Z,30.60
2019-05-17T16:55:18.256Z,30.80
2019-05-17T16:57:47.352Z,31.30
2019-05-17T17:00:38.186Z,30.70
2019-05-17T17:03:08.891Z,30.90
2019-05-17T17:05:44.433Z,30.70
2019-05-17T17:08:13.542Z,30.00
2019-05-17T17:10:42.723Z,30.50
2019-05-17T17:13:11.751Z,29.70
2019-05-17T17:15:42.843Z,30.00
2019-05-17T17:18:11.957Z,29.80
2019-05-17T17:20:41.048Z,30.40
2019-05-17T17:23:10.145Z,28.90
2019-05-17T17:25:39.559Z,29.60
2019-05-17T17:28:08.741Z,30.00
2019-05-17T17:30:37.763Z,29.20
2019-05-17T17:33:07.035Z,29.50
2019-05-17T17:35:36.136Z,29.50
2019-05-17T17:38:06.188Z,29.10
2019-05-17T17:40:35.217Z,29.00
2019-05-17T17:43:12.386Z,28.80
2019-05-17T17:45:45.442Z,28.80
2019-05-17T17:48:14.507Z,28.70
2019-05-17T17:50:44.200Z,28.60
2019-05-17T17:53:14.434Z,28.90
2019-05-17T17:55:47.125Z,29.20
2019-05-17T17:58:17.148Z,28.90
2019-05-17T18:00:46.278Z,28.90
2019-05-17T18:03:15.436Z,29.00
2019-05-17T18:05:47.177Z,29.30
2019-05-17T18:08:16.382Z,29.40
2019-05-17T18:10:46.760Z,29.30
2019-05-17T18:13:16.000Z,29.20
2019-05-17T18:15:50.440Z,30.00
2019-05-17T18:18:19.723Z,30.20
2019-05-17T18:20:53.012Z,30.00
2019-05-17T18:23:23.438Z,30.60
2019-05-17T18:25:52.944Z,30.30
2019-05-17T18:28:26.746Z,30.90
2019-05-17T18:30:55.841Z,31.10
2019-05-17T18:33:24.936Z,31.60
2019-05-17T18:36:01.335Z,32.20
2019-05-17T18:38:31.845Z,32.70
2019-05-17T18:41:01.035Z,33.30
2019-05-17T18:43:30.127Z,33.80
2019-05-17T18:45:59.124Z,34.30
2019-05-17T18:48:28.214Z,34.80
2019-05-17T18:50:57.411Z,35.20
2019-05-17T18:53:29.189Z,36.30
2019-05-17T18:56:05.792Z,36.20
2019-05-17T18:58:34.986Z,36.60
2019-05-17T19:01:04.132Z,36.60
2019-05-17T19:03:36.040Z,37.30
2019-05-17T19:06:03.965Z,37.40
2019-05-17T19:08:33.915Z,37.80
2019-05-17T19:11:03.069Z,38.10
2019-05-17T19:13:32.161Z,38.10
2019-05-17T19:16:03.922Z,38.30
2019-05-17T19:18:35.376Z,39.00
2019-05-17T19:21:04.981Z,39.80
2019-05-17T19:23:34.078Z,39.60
2019-05-17T19:26:04.162Z,39.70
2019-05-17T19:28:33.392Z,40.10
2019-05-17T19:31:02.481Z,40.40
2019-05-17T19:33:31.577Z,40.40
2019-05-17T19:36:01.082Z,40.60
2019-05-17T19:38:30.511Z,40.90
2019-05-17T19:40:59.577Z,41.30
2019-05-17T19:43:30.718Z,41.20
2019-05-17T19:45:59.817Z,41.30
2019-05-17T19:48:30.298Z,41.60
2019-05-17T19:51:00.471Z,41.50
2019-05-17T19:53:29.765Z,41.80
2019-05-17T19:56:01.311Z,41.60
2019-05-17T19:58:30.316Z,41.50
2019-05-17T20:00:59.400Z,41.70
2019-05-17T20:03:28.493Z,41.90
2019-05-17T20:05:57.693Z,42.10
2019-05-17T20:08:26.785Z,42.30
2019-05-17T20:10:55.987Z,42.40
2019-05-17T20:13:25.693Z,42.00
2019-05-17T20:15:59.720Z,42.40
2019-05-17T20:18:28.797Z,42.20
2019-05-17T20:20:57.909Z,42.60
2019-05-17T20:23:26.987Z,42.40
2019-05-17T20:25:56.907Z,42.80
2019-05-17T20:28:25.995Z,43.00
2019-05-17T20:30:56.320Z,43.00
2019-05-17T20:33:28.385Z,43.30
2019-05-17T20:35:57.481Z,43.20
2019-05-17T20:38:26.573Z,43.30
2019-05-17T20:40:55.679Z,43.60
2019-05-17T20:43:25.226Z,44.50
2019-05-17T20:45:54.267Z,44.30
2019-05-17T20:48:26.083Z,43.70
2019-05-17T20:50:56.411Z,44.00
2019-05-17T20:53:26.400Z,43.80
2019-05-17T20:55:55.469Z,43.80
2019-05-17T20:58:24.670Z,43.70
2019-05-17T21:00:53.753Z,43.70
2019-05-17T21:03:22.843Z,43.70
2019-05-17T21:05:51.940Z,44.70
2019-05-17T21:08:26.713Z,43.70
2019-05-17T21:10:55.562Z,48.10
2019-05-17T21:13:24.758Z,54.20
2019-05-17T21:15:53.786Z,51.60
2019-05-17T21:18:22.870Z,51.90
2019-05-17T21:20:51.845Z,54.70
2019-05-17T21:23:23.610Z,54.50
2019-05-17T21:25:52.763Z,51.90
2019-05-17T21:28:22.013Z,51.70
2019-05-17T21:30:51.673Z,50.60
2019-05-17T21:33:20.975Z,49.30
2019-05-17T21:35:50.679Z,49.80
2019-05-17T21:38:22.486Z,49.20
2019-05-17T21:40:51.891Z,48.80
2019-05-17T21:43:21.295Z,48.10
2019-05-17T21:46:02.574Z,48.40
2019-05-17T21:48:21.429Z,47.10
2019-05-17T21:50:54.825Z,48.40
2019-05-17T21:53:24.210Z,46.90
2019-05-17T21:55:53.705Z,47.70
2019-05-17T21:58:23.270Z,47.80
2019-05-17T22:00:58.660Z,47.30
2019-05-17T22:03:27.829Z,47.70
2019-05-17T22:05:57.622Z,47.50
2019-05-17T22:08:26.892Z,47.50
2019-05-17T22:10:56.073Z,47.90
2019-05-17T22:13:29.255Z,47.70
2019-05-17T22:15:58.476Z,47.70
2019-05-17T22:18:27.772Z,47.40
2019-05-17T22:20:58.244Z,47.70
2019-05-17T22:23:27.600Z,48.10
2019-05-17T22:25:59.734Z,47.60
2019-05-17T22:28:29.050Z,47.80
2019-05-17T22:31:00.083Z,48.50
2019-05-17T22:33:29.585Z,48.20
2019-05-17T22:35:59.023Z,48.40
2019-05-17T22:38:28.332Z,48.30
2019-05-17T22:40:57.507Z,48.70
2019-05-17T22:43:26.740Z,48.90
2019-05-17T23:21:06.765Z,48.80
